createdAt,value
2018-12-07T00:01:31.614Z,93.50
2018-12-07T00:04:36.257Z,92.79
2018-12-07T00:07:40.954Z,93.68
2018-12-07T00:10:45.684Z,93.81
2018-12-07T00:13:50.514Z,93.65
2018-12-07T00:16:55.327Z,94.43
2018-12-07T00:20:00.047Z,94.04
2018-12-07T00:23:05.476Z,94.12
2018-12-07T00:26:10.341Z,93.92
2018-12-07T00:29:15.072Z,94.84
2018-12-07T00:32:19.899Z,93.96
2018-12-07T00:35:24.548Z,93.28
2018-12-07T00:38:29.259Z,91.88
2018-12-07T00:41:33.940Z,91.88
2018-12-07T00:44:38.565Z,92.01
2018-12-07T00:47:43.132Z,92.76
2018-12-07T00:50:47.754Z,91.20
2018-12-07T00:53:52.394Z,91.65
2018-12-07T00:56:57.104Z,90.81
2018-12-07T01:00:01.643Z,90.40
2018-12-07T01:03:06.532Z,90.77
2018-12-07T01:06:11.322Z,90.23
2018-12-07T01:09:16.208Z,91.67
2018-12-07T01:12:20.849Z,91.69
2018-12-07T01:15:25.489Z,91.47
2018-12-07T01:18:30.076Z,91.50
2018-12-07T01:21:35.048Z,90.79
2018-12-07T01:24:39.672Z,91.09
2018-12-07T01:27:44.094Z,92.22
2018-12-07T01:30:48.820Z,91.54
2018-12-07T01:33:53.405Z,90.90
2018-12-07T01:36:58.026Z,90.63
2018-12-07T01:40:02.651Z,90.66
2018-12-07T01:43:07.249Z,91.83
2018-12-07T01:46:11.871Z,90.34
2018-12-07T01:49:16.491Z,89.08
2018-12-07T01:52:21.110Z,89.84
2018-12-07T01:55:25.775Z,89.30
2018-12-07T01:58:30.340Z,87.56
2018-12-07T02:01:34.963Z,88.50
2018-12-07T02:04:39.834Z,87.95
2018-12-07T02:07:44.474Z,87.72
2018-12-07T02:10:49.199Z,87.88
2018-12-07T02:13:53.785Z,87.62
2018-12-07T02:16:58.397Z,88.17
2018-12-07T02:20:02.952Z,87.55
2018-12-07T02:23:07.508Z,88.03
2018-12-07T02:26:12.151Z,87.49
2018-12-07T02:29:16.784Z,88.44
2018-12-07T02:32:21.376Z,87.50
2018-12-07T02:35:26.069Z,88.09
2018-12-07T02:38:30.678Z,87.50
2018-12-07T02:41:35.335Z,88.27
2018-12-07T02:44:39.962Z,88.40
2018-12-07T02:47:44.706Z,88.28
2018-12-07T02:50:55.981Z,86.74
2018-12-07T02:54:00.641Z,87.67
2018-12-07T02:57:05.375Z,87.67
2018-12-07T03:00:10.744Z,87.42
2018-12-07T03:03:16.070Z,87.54
2018-12-07T03:06:20.807Z,86.30
2018-12-07T03:09:25.407Z,87.70
2018-12-07T03:12:30.082Z,87.17
2018-12-07T03:15:34.601Z,87.90
2018-12-07T03:18:39.205Z,87.61
2018-12-07T03:21:43.916Z,87.46
2018-12-07T03:24:48.506Z,87.50
2018-12-07T03:27:53.254Z,86.27
2018-12-07T03:30:58.047Z,87.05
2018-12-07T03:34:02.706Z,86.36
2018-12-07T03:37:07.316Z,87.12
2018-12-07T03:40:12.048Z,87.11
2018-12-07T03:43:16.675Z,86.57
2018-12-07T03:46:21.341Z,86.71
2018-12-07T03:49:26.077Z,86.40
2018-12-07T03:52:30.532Z,86.13
2018-12-07T03:55:35.385Z,86.53
2018-12-07T03:58:40.034Z,86.94
2018-12-07T04:01:44.610Z,87.83
2018-12-07T04:04:49.132Z,87.84
2018-12-07T04:07:53.796Z,87.37
2018-12-07T04:10:58.437Z,87.28
2018-12-07T04:14:03.271Z,87.99
2018-12-07T04:17:08.056Z,86.15
2018-12-07T04:20:12.799Z,85.85
2018-12-07T04:23:17.501Z,85.86
2018-12-07T04:26:28.658Z,86.41
2018-12-07T04:29:33.778Z,86.42
2018-12-07T04:32:38.314Z,86.65
2018-12-07T04:35:43.088Z,85.97
2018-12-07T04:38:47.639Z,86.58
2018-12-07T04:41:52.138Z,86.26
2018-12-07T04:44:56.764Z,87.16
2018-12-07T04:48:01.682Z,87.37
2018-12-07T04:51:06.242Z,86.66
2018-12-07T04:54:10.857Z,85.89
2018-12-07T04:57:15.443Z,86.02
2018-12-07T05:00:20.431Z,85.93
2018-12-07T05:03:25.082Z,85.82
2018-12-07T05:06:29.660Z,85.75
2018-12-07T05:09:34.249Z,86.47
2018-12-07T05:12:39.143Z,87.46
2018-12-07T05:15:43.942Z,86.57
2018-12-07T05:18:48.534Z,85.78
2018-12-07T05:21:53.189Z,84.93
2018-12-07T05:24:57.818Z,85.04
2018-12-07T05:28:02.456Z,85.94
2018-12-07T05:31:07.041Z,85.94
2018-12-07T05:34:11.806Z,86.06
2018-12-07T05:37:16.308Z,85.64
2018-12-07T05:40:20.882Z,85.67
2018-12-07T05:43:25.443Z,85.99
2018-12-07T05:46:30.101Z,85.13
2018-12-07T05:49:34.715Z,84.98
2018-12-07T05:52:39.332Z,84.20
2018-12-07T05:55:44.655Z,84.74
2018-12-07T05:58:49.330Z,85.10
2018-12-07T06:01:54.041Z,84.90
2018-12-07T06:04:58.673Z,84.22
2018-12-07T06:08:03.542Z,84.14
2018-12-07T06:14:22.368Z,85.10
2018-12-07T06:17:26.882Z,84.49
2018-12-07T06:20:31.596Z,84.28
2018-12-07T06:23:36.222Z,85.73
2018-12-07T06:26:40.991Z,85.21
2018-12-07T06:29:45.743Z,85.23
2018-12-07T06:32:50.526Z,84.83
2018-12-07T06:35:55.256Z,85.48
2018-12-07T06:38:59.866Z,83.88
2018-12-07T06:42:04.560Z,85.02
2018-12-07T06:45:09.314Z,84.74
2018-12-07T06:48:13.893Z,85.85
2018-12-07T06:51:18.578Z,83.88
2018-12-07T06:54:23.624Z,84.40
2018-12-07T06:57:28.280Z,83.47
2018-12-07T07:00:32.803Z,85.18
2018-12-07T07:03:37.582Z,83.76
2018-12-07T07:06:42.142Z,84.80
2018-12-07T07:09:46.690Z,84.45
2018-12-07T07:12:51.374Z,83.95
2018-12-07T07:15:55.915Z,84.63
2018-12-07T07:19:00.593Z,83.36
2018-12-07T07:22:05.222Z,84.34
2018-12-07T07:25:10.007Z,83.62
2018-12-07T07:28:14.649Z,83.01
2018-12-07T07:31:19.238Z,82.51
2018-12-07T07:34:23.946Z,81.78
2018-12-07T07:37:28.597Z,82.10
2018-12-07T07:40:33.232Z,81.34
2018-12-07T07:43:37.984Z,81.97
2018-12-07T07:46:42.651Z,82.18
2018-12-07T07:49:47.146Z,81.65
2018-12-07T07:52:51.784Z,81.30
2018-12-07T07:55:56.340Z,80.96
2018-12-07T07:59:01.047Z,80.82
2018-12-07T08:02:05.985Z,81.16
2018-12-07T08:05:10.632Z,80.64
2018-12-07T08:08:15.445Z,80.40
2018-12-07T08:11:20.166Z,80.53
2018-12-07T08:14:24.825Z,81.28
2018-12-07T08:17:29.410Z,81.10
2018-12-07T08:20:34.306Z,81.49
2018-12-07T08:23:39.310Z,80.70
2018-12-07T08:26:45.186Z,79.41
2018-12-07T08:29:49.872Z,78.36
2018-12-07T08:32:54.601Z,78.47
2018-12-07T08:35:59.443Z,79.58
2018-12-07T08:39:06.027Z,79.02
2018-12-07T08:42:10.748Z,79.71
2018-12-07T08:45:16.058Z,79.78
2018-12-07T08:48:20.739Z,79.22
2018-12-07T08:51:25.500Z,78.67
2018-12-07T08:54:30.076Z,78.18
2018-12-07T08:57:34.729Z,77.54
2018-12-07T09:00:39.331Z,77.47
2018-12-07T09:03:51.070Z,78.55
2018-12-07T09:06:55.721Z,76.47
2018-12-07T09:10:00.593Z,75.62
2018-12-07T09:13:05.246Z,75.36
2018-12-07T09:16:09.970Z,75.00
2018-12-07T09:19:14.714Z,75.27
2018-12-07T09:22:19.445Z,75.34
2018-12-07T09:25:24.143Z,75.85
2018-12-07T09:28:28.772Z,74.78
2018-12-07T09:31:33.402Z,75.92
2018-12-07T09:34:38.038Z,73.55
2018-12-07T09:37:42.658Z,73.85
2018-12-07T09:40:47.507Z,72.62
2018-12-07T09:43:52.050Z,71.79
2018-12-07T09:46:56.712Z,70.99
2018-12-07T09:50:01.415Z,71.84
2018-12-07T09:53:05.974Z,72.47
2018-12-07T09:56:10.567Z,73.56
2018-12-07T09:59:15.252Z,72.92
2018-12-07T10:02:19.874Z,73.33
2018-12-07T10:05:24.645Z,72.57
2018-12-07T10:08:29.151Z,71.66
2018-12-07T10:11:33.849Z,73.81
2018-12-07T10:14:38.376Z,71.75
2018-12-07T10:17:42.973Z,70.76
2018-12-07T10:20:47.687Z,71.83
2018-12-07T10:23:52.341Z,72.50
2018-12-07T10:27:06.423Z,71.89
2018-12-07T10:30:11.043Z,72.55
2018-12-07T10:33:15.781Z,71.51
2018-12-07T10:36:20.619Z,72.39
2018-12-07T10:39:25.456Z,70.89
2018-12-07T10:42:30.201Z,70.65
2018-12-07T10:45:35.099Z,70.02
2018-12-07T10:48:39.927Z,70.39
2018-12-07T10:51:44.658Z,70.61
2018-12-07T10:54:49.397Z,70.32
2018-12-07T10:57:55.394Z,69.78
2018-12-07T11:01:05.650Z,71.21
2018-12-07T11:04:15.713Z,71.02
2018-12-07T11:07:25.694Z,71.93
2018-12-07T11:10:35.543Z,71.43
2018-12-07T11:13:45.413Z,71.72
2018-12-07T11:16:55.340Z,71.23
2018-12-07T11:20:05.276Z,70.24
2018-12-07T11:23:25.126Z,69.53
2018-12-07T11:26:34.992Z,70.86
2018-12-07T11:29:44.707Z,71.11
2018-12-07T11:32:54.495Z,69.93
2018-12-07T11:35:59.232Z,70.31
2018-12-07T11:39:05.923Z,70.83
2018-12-07T11:42:10.602Z,71.58
2018-12-07T11:45:15.198Z,69.62
2018-12-07T11:48:19.731Z,71.28
2018-12-07T11:51:24.360Z,70.54
2018-12-07T11:54:29.148Z,71.30
2018-12-07T11:57:34.087Z,71.07
2018-12-07T12:00:38.770Z,70.41
2018-12-07T12:03:43.482Z,70.53
2018-12-07T12:06:48.064Z,71.46
2018-12-07T12:09:52.759Z,72.09
2018-12-07T12:12:57.373Z,71.50
2018-12-07T12:16:01.923Z,71.54
2018-12-07T12:19:06.603Z,71.86
2018-12-07T12:22:11.161Z,71.73
2018-12-07T12:25:15.888Z,71.90
2018-12-07T12:28:20.493Z,72.56
2018-12-07T12:31:25.086Z,72.91
2018-12-07T12:34:50.467Z,72.91
2018-12-07T13:03:05.801Z,71.80
2018-12-07T13:06:11.824Z,71.77
2018-12-07T13:09:16.402Z,72.41
2018-12-07T13:12:21.366Z,73.19
2018-12-07T13:15:26.146Z,71.92
2018-12-07T13:18:30.710Z,73.83
2018-12-07T13:21:35.458Z,75.05
2018-12-07T13:24:44.012Z,73.83
2018-12-07T13:27:48.799Z,73.77
2018-12-07T13:30:53.645Z,74.45
2018-12-07T13:33:58.296Z,73.97
2018-12-07T13:37:02.891Z,75.34
2018-12-07T13:40:08.280Z,75.17
2018-12-07T13:43:13.366Z,77.79
2018-12-07T13:46:18.703Z,77.36
2018-12-07T13:49:23.773Z,77.72
2018-12-07T13:52:28.673Z,78.25
2018-12-07T13:55:33.778Z,78.46
2018-12-07T13:58:39.074Z,78.25
2018-12-07T14:01:44.141Z,78.71
2018-12-07T14:04:49.013Z,80.20
2018-12-07T14:07:54.283Z,77.70
2018-12-07T14:10:59.026Z,78.09
2018-12-07T14:14:03.839Z,78.08
2018-12-07T14:17:08.588Z,78.15
2018-12-07T14:20:13.610Z,78.95
2018-12-07T14:23:18.698Z,79.14
2018-12-07T14:26:23.446Z,78.88
2018-12-07T14:29:29.714Z,79.37
2018-12-07T14:32:34.864Z,78.92
2018-12-07T14:35:39.576Z,78.61
2018-12-07T14:38:44.281Z,78.71
2018-12-07T14:41:49.037Z,78.62
2018-12-07T14:44:53.838Z,79.62
2018-12-07T14:47:58.641Z,79.19
2018-12-07T14:51:03.580Z,78.54
2018-12-07T14:54:10.108Z,78.38
2018-12-07T14:57:15.398Z,78.74
2018-12-07T15:00:20.292Z,77.12
2018-12-07T15:03:25.292Z,76.46
2018-12-07T15:06:30.280Z,77.72
2018-12-07T15:09:35.090Z,76.52
2018-12-07T15:12:39.821Z,76.22
2018-12-07T15:15:44.764Z,77.18
2018-12-07T15:18:49.560Z,76.54
2018-12-07T15:21:54.317Z,75.82
2018-12-07T15:24:59.102Z,75.74
2018-12-07T15:28:03.729Z,74.26
2018-12-07T15:31:08.478Z,73.33
2018-12-07T15:34:13.562Z,72.60
2018-12-07T15:37:18.349Z,73.20
2018-12-07T15:40:23.110Z,73.84
2018-12-07T15:43:28.129Z,72.40
2018-12-07T15:46:32.951Z,72.34
2018-12-07T15:49:40.627Z,71.27
2018-12-07T15:52:45.470Z,71.28
2018-12-07T15:55:50.366Z,71.23
2018-12-07T15:58:56.908Z,70.68
2018-12-07T16:02:01.839Z,69.36
2018-12-07T16:05:07.926Z,69.91
2018-12-07T16:08:12.983Z,69.40
2018-12-07T16:11:18.940Z,69.18
2018-12-07T16:14:24.075Z,69.51
2018-12-07T16:17:29.512Z,68.61
2018-12-07T16:20:34.991Z,68.41
2018-12-07T16:23:39.923Z,67.78
2018-12-07T16:26:45.614Z,68.17
2018-12-07T16:29:50.505Z,67.62
2018-12-07T16:32:55.441Z,68.32
2018-12-07T16:36:00.403Z,67.33
2018-12-07T16:39:07.974Z,67.61
2018-12-07T16:42:12.705Z,68.22
2018-12-07T16:45:18.744Z,67.95
2018-12-07T16:48:23.528Z,67.97
2018-12-07T16:51:30.214Z,67.75
2018-12-07T16:54:37.035Z,68.24
2018-12-07T16:57:42.872Z,68.60
2018-12-07T17:00:48.001Z,68.01
2018-12-07T17:03:52.990Z,68.10
2018-12-07T17:06:57.976Z,69.06
2018-12-07T17:10:03.031Z,69.14
2018-12-07T17:13:08.655Z,69.77
2018-12-07T17:16:13.595Z,69.16
2018-12-07T17:19:18.306Z,68.75
2018-12-07T17:22:23.089Z,69.46
2018-12-07T17:25:27.918Z,69.13
2018-12-07T17:28:32.507Z,67.58
2018-12-07T17:31:37.349Z,68.22
2018-12-07T17:34:41.975Z,69.12
2018-12-07T17:37:46.685Z,70.33
2018-12-07T17:40:51.422Z,70.83
2018-12-07T17:43:56.340Z,71.95
2018-12-07T17:47:01.576Z,72.77
2018-12-07T17:50:08.221Z,72.94
2018-12-07T17:53:13.170Z,73.71
2018-12-07T17:56:17.959Z,74.74
2018-12-07T17:59:22.884Z,72.92
2018-12-07T18:02:27.649Z,73.74
2018-12-07T18:05:32.324Z,73.64
2018-12-07T18:08:37.058Z,72.52
2018-12-07T18:11:42.023Z,72.83
2018-12-07T18:14:47.001Z,73.57
2018-12-07T18:17:51.774Z,75.46
2018-12-07T18:20:56.522Z,76.27
2018-12-07T18:24:07.864Z,75.28
2018-12-07T18:27:12.602Z,76.79
2018-12-07T18:30:17.495Z,78.24
2018-12-07T18:33:22.343Z,79.94
2018-12-07T18:36:27.181Z,81.81
2018-12-07T18:39:32.115Z,81.70
2018-12-07T18:42:36.971Z,82.41
2018-12-07T18:45:41.890Z,82.91
2018-12-07T18:48:46.551Z,83.60
2018-12-07T18:51:51.342Z,84.02
2018-12-07T18:54:56.230Z,84.25
2018-12-07T18:58:00.884Z,85.92
2018-12-07T19:01:05.821Z,86.09
2018-12-07T19:04:10.633Z,87.18
2018-12-07T19:07:15.355Z,86.47
2018-12-07T19:10:20.286Z,86.19
2018-12-07T19:13:25.314Z,86.60
2018-12-07T19:16:30.158Z,86.37
2018-12-07T19:19:34.966Z,86.54
2018-12-07T19:22:39.928Z,86.55
2018-12-07T19:25:44.701Z,86.13
2018-12-07T19:28:49.433Z,85.66
2018-12-07T19:31:54.183Z,84.21
2018-12-07T19:34:58.939Z,86.48
2018-12-07T19:38:04.095Z,85.26
2018-12-07T19:41:09.122Z,85.71
2018-12-07T19:44:14.806Z,85.43
2018-12-07T19:47:19.568Z,85.53
2018-12-07T19:50:24.297Z,86.80
2018-12-07T19:53:29.071Z,85.18
2018-12-07T19:56:33.873Z,84.56
2018-12-07T19:59:38.813Z,84.75
2018-12-07T20:02:43.731Z,84.26
2018-12-07T20:05:48.887Z,82.70
2018-12-07T20:08:54.031Z,83.55
2018-12-07T20:11:58.733Z,84.39
2018-12-07T20:15:03.699Z,82.00
2018-12-07T20:18:08.570Z,82.02
2018-12-07T20:21:13.183Z,82.02
2018-12-07T20:24:18.375Z,82.09
2018-12-07T20:27:23.412Z,81.42
2018-12-07T20:30:28.135Z,81.88
2018-12-07T20:33:32.818Z,81.16
2018-12-07T20:36:37.418Z,81.43
2018-12-07T20:39:42.164Z,80.30
2018-12-07T20:42:54.070Z,79.61
2018-12-07T20:45:58.876Z,77.40
2018-12-07T20:49:03.717Z,77.65
2018-12-07T20:52:08.573Z,77.10
2018-12-07T20:55:13.326Z,75.12
2018-12-07T20:58:17.938Z,76.66
2018-12-07T21:01:22.764Z,75.54
2018-12-07T21:04:32.545Z,74.63
2018-12-07T21:09:32.155Z,74.12
2018-12-07T21:14:04.340Z,74.34
2018-12-07T21:17:36.349Z,74.48
2018-12-07T21:20:41.281Z,74.05
2018-12-07T21:23:45.969Z,73.91
2018-12-07T21:26:50.700Z,73.89
2018-12-07T21:30:58.385Z,72.95
2018-12-07T21:34:53.353Z,73.12
2018-12-07T21:37:57.999Z,73.59
2018-12-07T21:41:02.776Z,73.95
2018-12-07T21:44:07.868Z,74.11
2018-12-07T21:47:12.888Z,73.08
2018-12-07T21:50:17.776Z,72.24
2018-12-07T21:53:22.591Z,71.26
2018-12-07T21:56:27.255Z,71.78
2018-12-07T21:59:32.018Z,71.52
2018-12-07T22:02:36.885Z,72.23
2018-12-07T22:05:42.004Z,72.56
2018-12-07T22:08:46.794Z,72.54
2018-12-07T22:11:52.269Z,72.21
2018-12-07T22:14:56.938Z,72.70
2018-12-07T22:18:01.907Z,73.21
2018-12-07T22:21:06.636Z,73.88
2018-12-07T22:24:11.463Z,75.92
2018-12-07T22:27:16.090Z,75.73
2018-12-07T22:30:20.833Z,77.76
2018-12-07T22:33:25.632Z,76.34
2018-12-07T22:36:30.341Z,77.45
2018-12-07T22:39:34.909Z,78.00
2018-12-07T22:42:39.712Z,78.79
2018-12-07T22:45:44.763Z,77.58
2018-12-07T22:48:49.758Z,77.88
2018-12-07T22:51:54.491Z,76.13
2018-12-07T22:54:59.119Z,78.02
2018-12-07T22:58:03.801Z,75.14
2018-12-07T23:01:08.795Z,74.58
2018-12-07T23:04:13.589Z,73.56
2018-12-07T23:07:18.174Z,74.61
2018-12-07T23:10:22.810Z,75.84
2018-12-07T23:13:27.464Z,74.53
2018-12-07T23:16:32.123Z,74.53
2018-12-07T23:19:36.652Z,75.28
2018-12-07T23:22:41.266Z,74.28
2018-12-07T23:25:45.828Z,73.65
2018-12-07T23:28:50.698Z,74.10
2018-12-07T23:31:55.350Z,74.29
2018-12-07T23:34:59.974Z,74.03
2018-12-07T23:38:04.570Z,75.89
2018-12-07T23:41:09.294Z,75.58
2018-12-07T23:44:16.996Z,74.30
2018-12-07T23:47:21.539Z,75.81
2018-12-07T23:50:26.227Z,76.97
2018-12-07T23:53:30.812Z,76.29
2018-12-07T23:56:35.381Z,75.27
2018-12-07T23:59:40.025Z,75.09
